sensor_id;sensor_type;location;lat;lon;timestamp;pressure;altitude;pressure_sealevel;temperature;humidity
7433;BME280;32233;49.500;7.764;2023-05-11T00:01:22;98299.59;;;7.15;100.00
7433;BME280;32233;49.500;7.764;2023-05-11T00:03:49;98293.03;;;7.26;100.00
7433;BME280;32233;49.500;7.764;2023-05-11T00:06:16;98289.53;;;7.18;100.00
7433;BME280;32233;49.500;7.764;2023-05-11T00:08:42;98291.22;;;7.26;100.00
7433;BME280;32233;49.500;7.764;2023-05-11T00:11:08;98292.25;;;7.10;100.00
7433;BME280;32233;49.500;7.764;2023-05-11T00:13:35;98285.66;;;7.14;100.00
7433;BME280;32233;49.500;7.764;2023-05-11T00:16:02;98289.81;;;7.09;100.00
7433;BME280;32233;49.500;7.764;2023-05-11T00:18:29;98292.44;;;7.09;100.00
7433;BME280;32233;49.500;7.764;2023-05-11T00:20:56;98289.34;;;7.05;100.00
7433;BME280;32233;49.500;7.764;2023-05-11T00:23:23;98286.34;;;7.08;100.00
7433;BME280;32233;49.500;7.764;2023-05-11T00:25:49;98287.09;;;7.02;100.00
7433;BME280;32233;49.500;7.764;2023-05-11T00:28:16;98281.41;;;6.99;100.00
7433;BME280;32233;49.500;7.764;2023-05-11T00:30:42;98282.19;;;6.84;100.00
7433;BME280;32233;49.500;7.764;2023-05-11T00:33:10;98279.66;;;6.76;100.00
7433;BME280;32233;49.500;7.764;2023-05-11T00:35:37;98280.22;;;6.72;100.00
7433;BME280;32233;49.500;7.764;2023-05-11T00:38:03;98273.13;;;6.72;100.00
7433;BME280;32233;49.500;7.764;2023-05-11T00:40:30;98278.84;;;6.76;100.00
7433;BME280;32233;49.500;7.764;2023-05-11T00:42:57;98267.44;;;6.83;100.00
7433;BME280;32233;49.500;7.764;2023-05-11T00:45:24;98268.25;;;6.84;100.00
7433;BME280;32233;49.500;7.764;2023-05-11T00:47:51;98270.78;;;6.62;100.00
7433;BME280;32233;49.500;7.764;2023-05-11T00:50:18;98266.97;;;6.65;100.00
7433;BME280;32233;49.500;7.764;2023-05-11T00:52:45;98270.72;;;6.70;100.00
7433;BME280;32233;49.500;7.764;2023-05-11T00:55:13;98260.03;;;6.57;100.00
7433;BME280;32233;49.500;7.764;2023-05-11T00:57:40;98274.13;;;6.56;100.00
7433;BME280;32233;49.500;7.764;2023-05-11T01:00:07;98281.53;;;6.53;100.00
7433;BME280;32233;49.500;7.764;2023-05-11T01:02:34;98275.59;;;6.59;100.00
7433;BME280;32233;49.500;7.764;2023-05-11T01:05:00;98282.09;;;6.63;100.00
7433;BME280;32233;49.500;7.764;2023-05-11T01:07:33;98283.09;;;6.47;100.00
7433;BME280;32233;49.500;7.764;2023-05-11T01:10:12;98280.91;;;6.51;100.00
7433;BME280;32233;49.500;7.764;2023-05-11T01:12:59;98288.97;;;6.49;100.00
7433;BME280;32233;49.500;7.764;2023-05-11T01:15:53;98292.50;;;6.56;100.00
7433;BME280;32233;49.500;7.764;2023-05-11T01:18:29;98288.53;;;6.60;100.00
7433;BME280;32233;49.500;7.764;2023-05-11T01:21:04;98284.53;;;6.50;100.00
7433;BME280;32233;49.500;7.764;2023-05-11T01:23:59;98286.78;;;6.53;100.00
7433;BME280;32233;49.500;7.764;2023-05-11T01:27:02;98287.09;;;6.58;100.00
7433;BME280;32233;49.500;7.764;2023-05-11T01:30:00;98288.59;;;6.52;100.00
7433;BME280;32233;49.500;7.764;2023-05-11T01:32:31;98291.59;;;6.64;100.00
7433;BME280;32233;49.500;7.764;2023-05-11T01:35:05;98292.63;;;6.63;100.00
7433;BME280;32233;49.500;7.764;2023-05-11T01:37:34;98287.63;;;6.53;100.00
7433;BME280;32233;49.500;7.764;2023-05-11T01:40:10;98293.31;;;6.57;100.00
7433;BME280;32233;49.500;7.764;2023-05-11T01:42:41;98290.84;;;6.40;100.00
7433;BME280;32233;49.500;7.764;2023-05-11T01:45:10;98286.06;;;6.44;100.00
7433;BME280;32233;49.500;7.764;2023-05-11T01:47:39;98286.34;;;6.49;100.00
7433;BME280;32233;49.500;7.764;2023-05-11T01:50:07;98287.25;;;6.56;100.00
7433;BME280;32233;49.500;7.764;2023-05-11T01:52:37;98280.66;;;6.45;100.00
7433;BME280;32233;49.500;7.764;2023-05-11T01:55:06;98282.69;;;6.35;100.00
7433;BME280;32233;49.500;7.764;2023-05-11T01:57:35;98287.41;;;6.40;100.00
7433;BME280;32233;49.500;7.764;2023-05-11T02:00:03;98289.28;;;6.31;100.00
7433;BME280;32233;49.500;7.764;2023-05-11T02:02:38;98290.28;;;6.30;100.00
7433;BME280;32233;49.500;7.764;2023-05-11T02:05:06;98280.34;;;6.26;100.00
7433;BME280;32233;49.500;7.764;2023-05-11T02:07:35;98287.84;;;6.29;100.00
7433;BME280;32233;49.500;7.764;2023-05-11T02:10:03;98292.19;;;6.22;100.00
7433;BME280;32233;49.500;7.764;2023-05-11T02:12:32;98288.84;;;6.28;100.00
7433;BME280;32233;49.500;7.764;2023-05-11T02:15:02;98289.88;;;6.41;100.00
7433;BME280;32233;49.500;7.764;2023-05-11T02:17:29;98289.56;;;6.74;100.00
7433;BME280;32233;49.500;7.764;2023-05-11T02:20:00;98286.81;;;6.97;100.00
7433;BME280;32233;49.500;7.764;2023-05-11T02:22:29;98286.56;;;6.92;100.00
7433;BME280;32233;49.500;7.764;2023-05-11T02:24:57;98286.91;;;6.89;100.00
7433;BME280;32233;49.500;7.764;2023-05-11T02:27:24;98286.91;;;7.04;100.00
7433;BME280;32233;49.500;7.764;2023-05-11T02:29:51;98286.91;;;7.18;100.00
7433;BME280;32233;49.500;7.764;2023-05-11T02:32:20;98280.66;;;7.19;100.00
7433;BME280;32233;49.500;7.764;2023-05-11T02:35:10;98284.78;;;7.29;100.00
7433;BME280;32233;49.500;7.764;2023-05-11T02:37:42;98279.09;;;7.25;100.00
7433;BME280;32233;49.500;7.764;2023-05-11T02:40:18;98282.97;;;7.29;100.00
7433;BME280;32233;49.500;7.764;2023-05-11T02:42:48;98285.47;;;7.52;100.00
7433;BME280;32233;49.500;7.764;2023-05-11T02:45:19;98285.75;;;7.42;100.00
7433;BME280;32233;49.500;7.764;2023-05-11T02:47:53;98281.06;;;7.38;100.00
7433;BME280;32233;49.500;7.764;2023-05-11T02:50:26;98281.75;;;7.47;100.00
7433;BME280;32233;49.500;7.764;2023-05-11T02:52:58;98289.81;;;7.60;100.00
7433;BME280;32233;49.500;7.764;2023-05-11T02:55:27;98284.47;;;7.75;100.00
7433;BME280;32233;49.500;7.764;2023-05-11T02:57:54;98288.25;;;7.87;100.00
7433;BME280;32233;49.500;7.764;2023-05-11T03:00:21;98285.94;;;7.99;100.00
7433;BME280;32233;49.500;7.764;2023-05-11T03:02:48;98288.00;;;8.03;100.00
7433;BME280;32233;49.500;7.764;2023-05-11T03:05:19;98289.44;;;8.06;100.00
7433;BME280;32233;49.500;7.764;2023-05-11T03:07:46;98289.59;;;7.98;100.00
7433;BME280;32233;49.500;7.764;2023-05-11T03:10:13;98285.06;;;8.13;100.00
7433;BME280;32233;49.500;7.764;2023-05-11T03:12:42;98295.78;;;8.11;100.00
7433;BME280;32233;49.500;7.764;2023-05-11T03:15:10;98280.47;;;8.22;100.00
7433;BME280;32233;49.500;7.764;2023-05-11T03:17:40;98282.91;;;8.23;100.00
7433;BME280;32233;49.500;7.764;2023-05-11T03:20:10;98284.53;;;8.24;100.00
7433;BME280;32233;49.500;7.764;2023-05-11T03:22:38;98286.00;;;8.05;100.00
7433;BME280;32233;49.500;7.764;2023-05-11T03:25:06;98290.13;;;8.14;100.00
7433;BME280;32233;49.500;7.764;2023-05-11T03:27:34;98284.13;;;8.21;100.00
7433;BME280;32233;49.500;7.764;2023-05-11T03:30:03;98282.09;;;8.23;100.00
7433;BME280;32233;49.500;7.764;2023-05-11T03:32:37;98276.84;;;8.23;100.00
7433;BME280;32233;49.500;7.764;2023-05-11T03:35:05;98283.13;;;8.22;100.00
7433;BME280;32233;49.500;7.764;2023-05-11T03:37:32;98284.25;;;8.12;100.00
7433;BME280;32233;49.500;7.764;2023-05-11T03:40:02;98285.06;;;8.13;100.00
7433;BME280;32233;49.500;7.764;2023-05-11T03:42:36;98283.47;;;8.18;100.00
7433;BME280;32233;49.500;7.764;2023-05-11T03:45:06;98279.69;;;8.28;100.00
7433;BME280;32233;49.500;7.764;2023-05-11T03:47:34;98278.44;;;8.24;100.00
7433;BME280;32233;49.500;7.764;2023-05-11T03:50:02;98285.25;;;8.11;100.00
7433;BME280;32233;49.500;7.764;2023-05-11T03:52:29;98281.88;;;8.17;100.00
7433;BME280;32233;49.500;7.764;2023-05-11T03:54:56;98278.44;;;8.24;100.00
7433;BME280;32233;49.500;7.764;2023-05-11T03:57:25;98272.00;;;8.26;100.00
7433;BME280;32233;49.500;7.764;2023-05-11T03:59:52;98277.72;;;8.30;100.00
7433;BME280;32233;49.500;7.764;2023-05-11T04:02:19;98275.31;;;8.35;100.00
7433;BME280;32233;49.500;7.764;2023-05-11T04:04:46;98278.84;;;8.42;100.00
7433;BME280;32233;49.500;7.764;2023-05-11T04:07:12;98274.28;;;8.36;100.00
7433;BME280;32233;49.500;7.764;2023-05-11T04:09:39;98282.72;;;8.46;100.00
7433;BME280;32233;49.500;7.764;2023-05-11T04:12:06;98271.31;;;8.39;100.00
7433;BME280;32233;49.500;7.764;2023-05-11T04:14:32;98280.09;;;8.46;100.00
7433;BME280;32233;49.500;7.764;2023-05-11T04:16:59;98280.09;;;8.46;100.00
7433;BME280;32233;49.500;7.764;2023-05-11T04:19:26;98278.28;;;8.47;100.00
7433;BME280;32233;49.500;7.764;2023-05-11T04:21:53;98279.13;;;8.54;100.00
7433;BME280;32233;49.500;7.764;2023-05-11T04:24:20;98275.88;;;8.52;100.00
7433;BME280;32233;49.500;7.764;2023-05-11T04:26:46;98272.66;;;8.56;100.00
7433;BME280;32233;49.500;7.764;2023-05-11T04:29:13;98282.59;;;8.61;100.00
7433;BME280;32233;49.500;7.764;2023-05-11T04:31:39;98283.84;;;8.65;100.00
7433;BME280;32233;49.500;7.764;2023-05-11T04:34:06;98284.50;;;8.67;100.00
7433;BME280;32233;49.500;7.764;2023-05-11T04:36:34;98285.50;;;8.66;100.00
7433;BME280;32233;49.500;7.764;2023-05-11T04:39:01;98283.91;;;8.72;100.00
7433;BME280;32233;49.500;7.764;2023-05-11T04:41:29;98289.84;;;8.80;100.00
7433;BME280;32233;49.500;7.764;2023-05-11T04:43:58;98293.06;;;8.76;100.00
7433;BME280;32233;49.500;7.764;2023-05-11T04:46:24;98300.44;;;8.87;100.00
7433;BME280;32233;49.500;7.764;2023-05-11T04:48:51;98300.75;;;8.77;100.00
7433;BME280;32233;49.500;7.764;2023-05-11T04:51:17;98294.09;;;8.81;100.00
7433;BME280;32233;49.500;7.764;2023-05-11T04:53:44;98294.66;;;8.70;100.00
7433;BME280;32233;49.500;7.764;2023-05-11T04:56:10;98298.38;;;8.82;100.00
7433;BME280;32233;49.500;7.764;2023-05-11T04:58:37;98304.47;;;8.89;100.00
7433;BME280;32233;49.500;7.764;2023-05-11T05:01:04;98306.16;;;8.97;100.00
7433;BME280;32233;49.500;7.764;2023-05-11T05:03:31;98298.50;;;9.02;100.00
7433;BME280;32233;49.500;7.764;2023-05-11T05:05:57;98301.91;;;8.96;100.00
7433;BME280;32233;49.500;7.764;2023-05-11T05:08:23;98306.41;;;9.02;100.00
7433;BME280;32233;49.500;7.764;2023-05-11T05:10:50;98311.09;;;9.13;100.00
7433;BME280;32233;49.500;7.764;2023-05-11T05:13:17;98306.19;;;9.04;100.00
7433;BME280;32233;49.500;7.764;2023-05-11T05:15:43;98308.28;;;9.15;100.00
7433;BME280;32233;49.500;7.764;2023-05-11T05:18:10;98308.94;;;9.24;100.00
7433;BME280;32233;49.500;7.764;2023-05-11T05:20:37;98311.38;;;9.25;100.00
7433;BME280;32233;49.500;7.764;2023-05-11T05:23:04;98311.59;;;9.30;100.00
7433;BME280;32233;49.500;7.764;2023-05-11T05:25:32;98315.47;;;9.34;100.00
7433;BME280;32233;49.500;7.764;2023-05-11T05:27:59;98309.03;;;9.43;100.00
7433;BME280;32233;49.500;7.764;2023-05-11T05:30:26;98311.41;;;9.38;100.00
7433;BME280;32233;49.500;7.764;2023-05-11T05:32:52;98316.47;;;9.27;100.00
7433;BME280;32233;49.500;7.764;2023-05-11T05:35:20;98320.34;;;9.31;100.00
7433;BME280;32233;49.500;7.764;2023-05-11T05:37:47;98324.63;;;9.38;100.00
7433;BME280;32233;49.500;7.764;2023-05-11T05:40:14;98320.41;;;9.44;100.00
7433;BME280;32233;49.500;7.764;2023-05-11T05:42:45;98323.41;;;9.41;100.00
7433;BME280;32233;49.500;7.764;2023-05-11T05:45:15;98325.63;;;9.37;100.00
7433;BME280;32233;49.500;7.764;2023-05-11T05:47:41;98322.59;;;9.40;100.00
7433;BME280;32233;49.500;7.764;2023-05-11T05:50:08;98318.72;;;9.36;100.00
7433;BME280;32233;49.500;7.764;2023-05-11T05:52:35;98327.41;;;9.30;100.00
7433;BME280;32233;49.500;7.764;2023-05-11T05:55:02;98321.78;;;9.40;100.00
7433;BME280;32233;49.500;7.764;2023-05-11T05:57:29;98325.34;;;9.19;100.00
7433;BME280;32233;49.500;7.764;2023-05-11T05:59:56;98326.97;;;9.20;100.00
7433;BME280;32233;49.500;7.764;2023-05-11T06:02:22;98329.84;;;9.25;100.00
7433;BME280;32233;49.500;7.764;2023-05-11T06:04:49;98332.25;;;9.20;100.00
7433;BME280;32233;49.500;7.764;2023-05-11T06:07:16;98327.41;;;9.24;100.00
7433;BME280;32233;49.500;7.764;2023-05-11T06:09:42;98329.66;;;9.33;100.00
7433;BME280;32233;49.500;7.764;2023-05-11T06:12:09;98329.94;;;9.45;100.00
7433;BME280;32233;49.500;7.764;2023-05-11T06:14:40;98327.31;;;9.52;100.00
7433;BME280;32233;49.500;7.764;2023-05-11T06:17:07;98329.13;;;9.45;100.00
7433;BME280;32233;49.500;7.764;2023-05-11T06:19:34;98337.84;;;9.45;100.00
7433;BME280;32233;49.500;7.764;2023-05-11T06:22:00;98342.69;;;9.35;100.00
7433;BME280;32233;49.500;7.764;2023-05-11T06:24:31;98326.34;;;9.18;100.00
7433;BME280;32233;49.500;7.764;2023-05-11T06:26:58;98343.28;;;9.37;100.00
7433;BME280;32233;49.500;7.764;2023-05-11T06:29:25;98338.88;;;9.51;100.00
7433;BME280;32233;49.500;7.764;2023-05-11T06:31:52;98338.06;;;9.50;100.00
7433;BME280;32233;49.500;7.764;2023-05-11T06:34:20;98341.38;;;9.65;100.00
7433;BME280;32233;49.500;7.764;2023-05-11T06:36:47;98343.75;;;9.54;100.00
7433;BME280;32233;49.500;7.764;2023-05-11T06:39:14;98338.13;;;9.63;100.00
7433;BME280;32233;49.500;7.764;2023-05-11T06:41:41;98339.38;;;9.74;100.00
7433;BME280;32233;49.500;7.764;2023-05-11T06:44:08;98338.78;;;9.79;100.00
7433;BME280;32233;49.500;7.764;2023-05-11T06:46:37;98339.19;;;9.76;100.00
7433;BME280;32233;49.500;7.764;2023-05-11T06:49:03;98336.19;;;9.99;100.00
7433;BME280;32233;49.500;7.764;2023-05-11T06:51:30;98335.16;;;9.93;100.00
7433;BME280;32233;49.500;7.764;2023-05-11T06:53:57;98336.19;;;9.92;100.00
7433;BME280;32233;49.500;7.764;2023-05-11T06:56:23;98329.06;;;9.92;100.00
7433;BME280;32233;49.500;7.764;2023-05-11T06:58:50;98334.19;;;10.01;100.00
7433;BME280;32233;49.500;7.764;2023-05-11T07:01:16;98332.97;;;10.10;100.00
7433;BME280;32233;49.500;7.764;2023-05-11T07:03:43;98328.69;;;10.02;100.00
7433;BME280;32233;49.500;7.764;2023-05-11T07:06:09;98327.22;;;9.86;100.00
7433;BME280;32233;49.500;7.764;2023-05-11T07:08:36;98326.88;;;10.23;100.00
7433;BME280;32233;49.500;7.764;2023-05-11T07:11:03;98326.84;;;10.03;100.00
7433;BME280;32233;49.500;7.764;2023-05-11T07:13:29;98337.22;;;10.11;100.00
7433;BME280;32233;49.500;7.764;2023-05-11T07:15:56;98336.22;;;10.18;100.00
7433;BME280;32233;49.500;7.764;2023-05-11T07:18:23;98336.69;;;10.35;100.00
7433;BME280;32233;49.500;7.764;2023-05-11T07:20:50;98332.81;;;10.31;100.00
7433;BME280;32233;49.500;7.764;2023-05-11T07:23:16;98331.59;;;10.40;100.00
7433;BME280;32233;49.500;7.764;2023-05-11T07:25:43;98322.44;;;10.56;100.00
7433;BME280;32233;49.500;7.764;2023-05-11T07:28:09;98327.31;;;10.59;100.00
7433;BME280;32233;49.500;7.764;2023-05-11T07:30:36;98337.09;;;10.65;100.00
7433;BME280;32233;49.500;7.764;2023-05-11T07:33:02;98329.13;;;10.85;100.00
7433;BME280;32233;49.500;7.764;2023-05-11T07:35:29;98337.28;;;10.71;100.00
7433;BME280;32233;49.500;7.764;2023-05-11T07:37:56;98340.97;;;10.70;100.00
7433;BME280;32233;49.500;7.764;2023-05-11T07:40:22;98334.22;;;10.80;100.00
7433;BME280;32233;49.500;7.764;2023-05-11T07:42:49;98330.16;;;10.84;100.00
7433;BME280;32233;49.500;7.764;2023-05-11T07:45:15;98326.03;;;11.15;100.00
7433;BME280;32233;49.500;7.764;2023-05-11T07:47:42;98327.66;;;11.23;100.00
7433;BME280;32233;49.500;7.764;2023-05-11T07:50:08;98328.25;;;11.25;99.87
7433;BME280;32233;49.500;7.764;2023-05-11T07:52:35;98331.84;;;11.37;99.12
7433;BME280;32233;49.500;7.764;2023-05-11T07:55:01;98325.13;;;11.34;98.79
7433;BME280;32233;49.500;7.764;2023-05-11T07:57:28;98325.44;;;11.64;96.90
7433;BME280;32233;49.500;7.764;2023-05-11T07:59:54;98329.88;;;11.71;95.24
7433;BME280;32233;49.500;7.764;2023-05-11T08:02:21;98324.25;;;11.60;95.26
7433;BME280;32233;49.500;7.764;2023-05-11T08:04:47;98326.78;;;11.87;96.05
7433;BME280;32233;49.500;7.764;2023-05-11T08:07:14;98324.97;;;11.81;95.53
7433;BME280;32233;49.500;7.764;2023-05-11T08:09:41;98327.69;;;12.06;94.69
7433;BME280;32233;49.500;7.764;2023-05-11T08:12:08;98321.88;;;12.22;93.31
7433;BME280;32233;49.500;7.764;2023-05-11T08:14:34;98324.78;;;12.46;90.12
7433;BME280;32233;49.500;7.764;2023-05-11T08:17:01;98316.69;;;12.09;89.78
7433;BME280;32233;49.500;7.764;2023-05-11T08:19:27;98317.13;;;11.99;93.45
7433;BME280;32233;49.500;7.764;2023-05-11T08:21:54;98322.78;;;12.09;94.22
7433;BME280;32233;49.500;7.764;2023-05-11T08:24:20;98324.75;;;12.21;93.87
7433;BME280;32233;49.500;7.764;2023-05-11T08:26:47;98323.28;;;12.25;92.70
7433;BME280;32233;49.500;7.764;2023-05-11T08:29:13;98319.66;;;12.44;92.07
7433;BME280;32233;49.500;7.764;2023-05-11T08:31:40;98322.13;;;12.14;91.97
7433;BME280;32233;49.500;7.764;2023-05-11T08:34:07;98321.50;;;12.44;91.44
7433;BME280;32233;49.500;7.764;2023-05-11T08:36:45;98320.81;;;12.30;89.44
7433;BME280;32233;49.500;7.764;2023-05-11T08:39:12;98329.81;;;12.54;91.54
7433;BME280;32233;49.500;7.764;2023-05-11T08:41:38;98325.53;;;12.78;88.33
7433;BME280;32233;49.500;7.764;2023-05-11T08:44:05;98326.66;;;12.63;88.45
7433;BME280;32233;49.500;7.764;2023-05-11T08:46:35;98322.75;;;12.66;90.88
7433;BME280;32233;49.500;7.764;2023-05-11T08:49:02;98320.84;;;12.48;91.42
7433;BME280;32233;49.500;7.764;2023-05-11T08:51:28;98323.78;;;12.40;90.90
7433;BME280;32233;49.500;7.764;2023-05-11T08:53:55;98328.28;;;12.08;90.53
7433;BME280;32233;49.500;7.764;2023-05-11T08:56:24;98330.28;;;12.44;90.20
7433;BME280;32233;49.500;7.764;2023-05-11T08:58:53;98330.22;;;12.51;90.24
7433;BME280;32233;49.500;7.764;2023-05-11T09:01:22;98321.56;;;12.62;91.43
7433;BME280;32233;49.500;7.764;2023-05-11T09:03:49;98320.84;;;12.73;89.10
7433;BME280;32233;49.500;7.764;2023-05-11T09:06:17;98324.19;;;12.87;88.01
7433;BME280;32233;49.500;7.764;2023-05-11T09:08:44;98329.56;;;12.30;87.56
7433;BME280;32233;49.500;7.764;2023-05-11T09:11:11;98327.94;;;12.79;86.98
7433;BME280;32233;49.500;7.764;2023-05-11T09:13:38;98328.50;;;13.06;88.11
7433;BME280;32233;49.500;7.764;2023-05-11T09:16:05;98331.88;;;13.13;88.38
7433;BME280;32233;49.500;7.764;2023-05-11T09:18:49;98336.06;;;13.28;85.25
7433;BME280;32233;49.500;7.764;2023-05-11T09:21:17;98330.88;;;13.14;84.31
7433;BME280;32233;49.500;7.764;2023-05-11T09:23:44;98326.13;;;13.23;82.52
7433;BME280;32233;49.500;7.764;2023-05-11T09:26:19;98330.22;;;13.19;84.99
7433;BME280;32233;49.500;7.764;2023-05-11T09:28:50;98330.53;;;13.48;81.68
7433;BME280;32233;49.500;7.764;2023-05-11T09:31:37;98334.75;;;13.67;78.53
7433;BME280;32233;49.500;7.764;2023-05-11T09:34:11;98329.31;;;13.62;79.28
7433;BME280;32233;49.500;7.764;2023-05-11T09:36:40;98329.91;;;13.94;81.83
7433;BME280;32233;49.500;7.764;2023-05-11T09:39:07;98326.41;;;13.82;80.11
7433;BME280;32233;49.500;7.764;2023-05-11T09:41:40;98328.28;;;13.63;78.86
7433;BME280;32233;49.500;7.764;2023-05-11T09:44:11;98329.69;;;13.66;81.43
7433;BME280;32233;49.500;7.764;2023-05-11T09:46:42;98328.06;;;13.95;79.09
7433;BME280;32233;49.500;7.764;2023-05-11T09:49:10;98324.81;;;14.23;77.48
7433;BME280;32233;49.500;7.764;2023-05-11T09:51:39;98319.00;;;14.14;78.38
7433;BME280;32233;49.500;7.764;2023-05-11T09:54:17;98313.16;;;13.94;77.97
7433;BME280;32233;49.500;7.764;2023-05-11T09:56:52;98322.16;;;14.23;77.24
7433;BME280;32233;49.500;7.764;2023-05-11T10:02:22;98315.38;;;13.97;76.44
7433;BME280;32233;49.500;7.764;2023-05-11T10:04:51;98317.94;;;14.45;76.86
7433;BME280;32233;49.500;7.764;2023-05-11T10:07:28;98325.16;;;14.26;75.95
7433;BME280;32233;49.500;7.764;2023-05-11T10:09:58;98318.72;;;14.04;77.63
7433;BME280;32233;49.500;7.764;2023-05-11T10:12:28;98319.88;;;13.96;76.39
7433;BME280;32233;49.500;7.764;2023-05-11T10:15:04;98319.13;;;14.19;79.48
7433;BME280;32233;49.500;7.764;2023-05-11T10:17:31;98309.38;;;14.01;80.12
7433;BME280;32233;49.500;7.764;2023-05-11T10:19:59;98306.69;;;14.43;73.42
7433;BME280;32233;49.500;7.764;2023-05-11T10:22:28;98307.69;;;14.19;75.37
7433;BME280;32233;49.500;7.764;2023-05-11T10:24:56;98305.75;;;13.84;80.57
7433;BME280;32233;49.500;7.764;2023-05-11T10:27:23;98305.19;;;14.35;79.22
7433;BME280;32233;49.500;7.764;2023-05-11T10:29:50;98305.13;;;14.54;75.34
7433;BME280;32233;49.500;7.764;2023-05-11T10:32:19;98299.81;;;14.66;76.58
7433;BME280;32233;49.500;7.764;2023-05-11T10:34:47;98301.38;;;14.43;72.07
7433;BME280;32233;49.500;7.764;2023-05-11T10:37:14;98297.81;;;14.37;72.01
7433;BME280;32233;49.500;7.764;2023-05-11T10:39:43;98295.31;;;14.24;72.48
7433;BME280;32233;49.500;7.764;2023-05-11T10:50:59;98285.94;;;14.99;72.92
7433;BME280;32233;49.500;7.764;2023-05-11T10:53:42;98287.66;;;14.81;72.91
7433;BME280;32233;49.500;7.764;2023-05-11T10:56:32;98288.00;;;14.73;70.60
7433;BME280;32233;49.500;7.764;2023-05-11T10:59:19;98285.47;;;14.67;75.79
7433;BME280;32233;49.500;7.764;2023-05-11T11:01:52;98288.50;;;14.82;74.24
7433;BME280;32233;49.500;7.764;2023-05-11T11:04:23;98284.63;;;15.01;72.25
7433;BME280;32233;49.500;7.764;2023-05-11T11:07:04;98279.72;;;15.22;69.06
7433;BME280;32233;49.500;7.764;2023-05-11T11:09:51;98288.28;;;15.35;69.31
7433;BME280;32233;49.500;7.764;2023-05-11T11:12:20;98283.94;;;15.06;69.57
7433;BME280;32233;49.500;7.764;2023-05-11T11:15:00;98278.13;;;15.09;70.06
7433;BME280;32233;49.500;7.764;2023-05-11T11:17:29;98275.72;;;15.07;70.13
7433;BME280;32233;49.500;7.764;2023-05-11T11:19:58;98284.06;;;14.76;73.06
7433;BME280;32233;49.500;7.764;2023-05-11T11:25:08;98277.13;;;14.51;71.79
7433;BME280;32233;49.500;7.764;2023-05-11T11:27:55;98275.19;;;14.70;72.35
7433;BME280;32233;49.500;7.764;2023-05-11T11:30:26;98264.97;;;15.02;71.88
7433;BME280;32233;49.500;7.764;2023-05-11T11:38:10;98269.97;;;14.75;68.64
7433;BME280;32233;49.500;7.764;2023-05-11T11:40:39;98267.31;;;14.87;66.94
7433;BME280;32233;49.500;7.764;2023-05-11T11:43:25;98264.28;;;15.47;70.60
7433;BME280;32233;49.500;7.764;2023-05-11T11:45:54;98264.06;;;15.37;66.51
7433;BME280;32233;49.500;7.764;2023-05-11T11:48:39;98263.63;;;15.69;65.79
7433;BME280;32233;49.500;7.764;2023-05-11T11:51:09;98257.16;;;16.10;69.10
7433;BME280;32233;49.500;7.764;2023-05-11T11:56:04;98255.41;;;15.58;64.05
7433;BME280;32233;49.500;7.764;2023-05-11T12:01:12;98251.06;;;15.52;64.57
7433;BME280;32233;49.500;7.764;2023-05-11T12:03:41;98246.53;;;15.53;64.08
7433;BME280;32233;49.500;7.764;2023-05-11T12:06:09;98246.91;;;15.45;64.09
7433;BME280;32233;49.500;7.764;2023-05-11T12:08:37;98243.69;;;16.17;67.10
7433;BME280;32233;49.500;7.764;2023-05-11T12:11:05;98241.75;;;16.29;62.71
7433;BME280;32233;49.500;7.764;2023-05-11T12:13:33;98243.56;;;16.62;62.60
7433;BME280;32233;49.500;7.764;2023-05-11T12:16:14;98240.47;;;16.70;61.12
7433;BME280;32233;49.500;7.764;2023-05-11T12:18:53;98233.00;;;16.89;67.48
7433;BME280;32233;49.500;7.764;2023-05-11T12:21:23;98231.31;;;17.49;63.55
7433;BME280;32233;49.500;7.764;2023-05-11T12:23:52;98231.06;;;17.50;60.94
7433;BME280;32233;49.500;7.764;2023-05-11T12:26:21;98237.06;;;17.63;57.09
7433;BME280;32233;49.500;7.764;2023-05-11T12:28:50;98235.94;;;17.31;56.61
7433;BME280;32233;49.500;7.764;2023-05-11T12:31:17;98233.28;;;17.09;59.94
7433;BME280;32233;49.500;7.764;2023-05-11T12:33:48;98229.78;;;17.09;62.91
7433;BME280;32233;49.500;7.764;2023-05-11T12:36:17;98221.47;;;17.05;59.24
7433;BME280;32233;49.500;7.764;2023-05-11T12:38:44;98225.00;;;17.33;55.42
7433;BME280;32233;49.500;7.764;2023-05-11T12:41:17;98219.53;;;17.01;60.25
7433;BME280;32233;49.500;7.764;2023-05-11T12:43:44;98219.72;;;16.55;60.89
7433;BME280;32233;49.500;7.764;2023-05-11T12:46:11;98226.94;;;16.94;60.15
7433;BME280;32233;49.500;7.764;2023-05-11T12:48:39;98213.66;;;16.43;63.40
7433;BME280;32233;49.500;7.764;2023-05-11T12:51:05;98217.50;;;16.69;60.06
7433;BME280;32233;49.500;7.764;2023-05-11T12:53:35;98213.47;;;16.67;61.80
7433;BME280;32233;49.500;7.764;2023-05-11T12:56:02;98209.50;;;16.69;62.20
7433;BME280;32233;49.500;7.764;2023-05-11T12:58:37;98201.91;;;16.78;60.11
7433;BME280;32233;49.500;7.764;2023-05-11T13:01:05;98210.63;;;16.73;62.06
7433;BME280;32233;49.500;7.764;2023-05-11T13:03:34;98198.81;;;16.69;59.18
7433;BME280;32233;49.500;7.764;2023-05-11T13:06:08;98204.88;;;16.81;64.94
7433;BME280;32233;49.500;7.764;2023-05-11T13:08:43;98195.75;;;16.60;58.16
7433;BME280;32233;49.500;7.764;2023-05-11T13:11:23;98195.59;;;16.67;57.22
7433;BME280;32233;49.500;7.764;2023-05-11T13:13:54;98196.56;;;16.61;61.27
7433;BME280;32233;49.500;7.764;2023-05-11T13:16:32;98191.66;;;16.53;61.23
7433;BME280;32233;49.500;7.764;2023-05-11T13:19:01;98190.63;;;16.54;61.43
7433;BME280;32233;49.500;7.764;2023-05-11T13:21:28;98182.41;;;16.39;61.64
7433;BME280;32233;49.500;7.764;2023-05-11T13:23:55;98189.38;;;16.06;61.29
7433;BME280;32233;49.500;7.764;2023-05-11T13:26:23;98193.19;;;15.93;65.57
7433;BME280;32233;49.500;7.764;2023-05-11T13:28:50;98190.19;;;15.61;64.35
7433;BME280;32233;49.500;7.764;2023-05-11T13:31:44;98191.06;;;15.21;68.43
7433;BME280;32233;49.500;7.764;2023-05-11T13:34:10;98191.75;;;14.88;73.15
7433;BME280;32233;49.500;7.764;2023-05-11T13:36:38;98197.00;;;14.59;73.19
7433;BME280;32233;49.500;7.764;2023-05-11T13:39:05;98199.06;;;14.46;74.13
7433;BME280;32233;49.500;7.764;2023-05-11T13:41:32;98199.88;;;14.23;73.76
7433;BME280;32233;49.500;7.764;2023-05-11T13:43:58;98208.41;;;14.01;79.70
7433;BME280;32233;49.500;7.764;2023-05-11T13:46:25;98205.72;;;13.48;83.50